sensor_id;sensor_type;location;lat;lon;timestamp;pressure;altitude;pressure_sealevel;temperature;humidity
56944;BME280;42848;42.524;12.052;2022-09-09T00:00:55;96627.69;;;19.74;100.00
56944;BME280;42848;42.524;12.052;2022-09-09T00:03:27;96597.72;;;19.62;100.00
56944;BME280;42848;42.524;12.052;2022-09-09T00:06:21;96610.16;;;20.72;100.00
56944;BME280;42848;42.524;12.052;2022-09-09T00:14:39;96628.84;;;20.28;100.00
56944;BME280;42848;42.524;12.052;2022-09-09T00:17:12;96605.94;;;20.16;100.00
56944;BME280;42848;42.524;12.052;2022-09-09T00:20:02;96594.34;;;20.55;100.00
56944;BME280;42848;42.524;12.052;2022-09-09T00:22:32;96601.34;;;20.42;100.00
56944;BME280;42848;42.524;12.052;2022-09-09T00:25:11;96614.47;;;20.63;100.00
56944;BME280;42848;42.524;12.052;2022-09-09T00:27:48;96609.06;;;20.98;100.00
56944;BME280;42848;42.524;12.052;2022-09-09T00:32:46;96596.78;;;20.67;100.00
56944;BME280;42848;42.524;12.052;2022-09-09T00:35:24;96579.50;;;20.88;100.00
56944;BME280;42848;42.524;12.052;2022-09-09T00:37:53;96581.81;;;20.83;100.00
56944;BME280;42848;42.524;12.052;2022-09-09T00:40:35;96580.31;;;21.03;100.00
56944;BME280;42848;42.524;12.052;2022-09-09T00:43:26;96586.22;;;20.98;100.00
56944;BME280;42848;42.524;12.052;2022-09-09T00:52:16;96555.78;;;20.73;100.00
56944;BME280;42848;42.524;12.052;2022-09-09T00:55:07;96533.53;;;20.27;100.00
56944;BME280;42848;42.524;12.052;2022-09-09T00:57:37;96530.19;;;20.69;100.00
56944;BME280;42848;42.524;12.052;2022-09-09T01:00:23;96523.50;;;20.91;100.00
56944;BME280;42848;42.524;12.052;2022-09-09T01:05:48;96502.22;;;20.85;100.00
56944;BME280;42848;42.524;12.052;2022-09-09T01:10:54;96501.78;;;20.61;100.00
56944;BME280;42848;42.524;12.052;2022-09-09T01:13:32;96500.59;;;20.62;100.00
56944;BME280;42848;42.524;12.052;2022-09-09T01:16:08;96486.06;;;20.87;100.00
56944;BME280;42848;42.524;12.052;2022-09-09T01:18:49;96481.34;;;20.98;100.00
56944;BME280;42848;42.524;12.052;2022-09-09T01:26:46;96488.38;;;20.63;100.00
56944;BME280;42848;42.524;12.052;2022-09-09T01:29:15;96481.28;;;20.55;100.00
56944;BME280;42848;42.524;12.052;2022-09-09T01:32:02;96471.44;;;20.76;100.00
56944;BME280;42848;42.524;12.052;2022-09-09T01:34:35;96483.28;;;20.83;100.00
56944;BME280;42848;42.524;12.052;2022-09-09T01:37:05;96480.16;;;20.88;100.00
56944;BME280;42848;42.524;12.052;2022-09-09T01:39:33;96476.97;;;20.76;100.00
56944;BME280;42848;42.524;12.052;2022-09-09T01:42:01;96484.88;;;20.77;100.00
56944;BME280;42848;42.524;12.052;2022-09-09T01:44:28;96475.41;;;20.82;100.00
56944;BME280;42848;42.524;12.052;2022-09-09T01:46:55;96480.53;;;20.69;100.00
56944;BME280;42848;42.524;12.052;2022-09-09T01:49:21;96484.06;;;20.84;100.00
56944;BME280;42848;42.524;12.052;2022-09-09T01:51:54;96474.66;;;20.95;100.00
56944;BME280;42848;42.524;12.052;2022-09-09T01:54:23;96473.84;;;21.02;100.00
56944;BME280;42848;42.524;12.052;2022-09-09T01:57:15;96491.19;;;21.02;100.00
56944;BME280;42848;42.524;12.052;2022-09-09T02:00:08;96485.69;;;20.99;100.00
56944;BME280;42848;42.524;12.052;2022-09-09T02:02:43;96495.94;;;21.09;100.00
56944;BME280;42848;42.524;12.052;2022-09-09T02:07:55;96488.81;;;21.01;100.00
56944;BME280;42848;42.524;12.052;2022-09-09T02:10:31;96494.38;;;21.05;100.00
56944;BME280;42848;42.524;12.052;2022-09-09T02:13:12;96502.66;;;21.22;100.00
56944;BME280;42848;42.524;12.052;2022-09-09T02:15:42;96496.72;;;21.20;100.00
56944;BME280;42848;42.524;12.052;2022-09-09T02:18:12;96499.47;;;20.99;100.00
56944;BME280;42848;42.524;12.052;2022-09-09T02:20:39;96516.34;;;20.55;100.00
56944;BME280;42848;42.524;12.052;2022-09-09T02:23:08;96505.16;;;20.15;100.00
56944;BME280;42848;42.524;12.052;2022-09-09T02:25:36;96506.91;;;20.59;100.00
56944;BME280;42848;42.524;12.052;2022-09-09T02:28:06;96511.22;;;20.53;100.00
56944;BME280;42848;42.524;12.052;2022-09-09T02:30:34;96505.16;;;20.15;100.00
56944;BME280;42848;42.524;12.052;2022-09-09T02:33:03;96521.09;;;20.61;100.00
56944;BME280;42848;42.524;12.052;2022-09-09T02:35:32;96521.16;;;20.90;100.00
56944;BME280;42848;42.524;12.052;2022-09-09T02:38:07;96512.88;;;20.97;100.00
56944;BME280;42848;42.524;12.052;2022-09-09T02:40:34;96506.16;;;20.80;100.00
56944;BME280;42848;42.524;12.052;2022-09-09T02:43:00;96509.31;;;21.00;100.00
56944;BME280;42848;42.524;12.052;2022-09-09T02:45:35;96499.63;;;20.19;100.00
56944;BME280;42848;42.524;12.052;2022-09-09T02:48:28;96507.44;;;19.99;100.00
56944;BME280;42848;42.524;12.052;2022-09-09T02:51:10;96499.66;;;20.26;100.00
56944;BME280;42848;42.524;12.052;2022-09-09T02:53:51;96513.69;;;19.89;100.00
56944;BME280;42848;42.524;12.052;2022-09-09T02:56:23;96501.19;;;20.09;100.00
56944;BME280;42848;42.524;12.052;2022-09-09T02:58:50;96496.88;;;20.19;100.00
56944;BME280;42848;42.524;12.052;2022-09-09T03:01:17;96500.44;;;20.20;100.00
56944;BME280;42848;42.524;12.052;2022-09-09T03:03:43;96490.19;;;20.16;100.00
56944;BME280;42848;42.524;12.052;2022-09-09T03:06:10;96493.47;;;20.43;100.00
56944;BME280;42848;42.524;12.052;2022-09-09T03:08:37;96483.91;;;20.27;100.00
56944;BME280;42848;42.524;12.052;2022-09-09T03:11:03;96488.25;;;20.28;100.00
56944;BME280;42848;42.524;12.052;2022-09-09T03:13:29;96484.13;;;19.79;100.00
56944;BME280;42848;42.524;12.052;2022-09-09T03:15:55;96484.50;;;19.81;100.00
56944;BME280;42848;42.524;12.052;2022-09-09T03:18:21;96480.66;;;19.96;100.00
56944;BME280;42848;42.524;12.052;2022-09-09T03:20:47;96483.09;;;20.15;100.00
56944;BME280;42848;42.524;12.052;2022-09-09T03:23:14;96481.16;;;20.23;100.00
56944;BME280;42848;42.524;12.052;2022-09-09T03:25:46;96484.63;;;20.09;100.00
56944;BME280;42848;42.524;12.052;2022-09-09T03:28:12;96488.66;;;20.23;100.00
56944;BME280;42848;42.524;12.052;2022-09-09T03:30:37;96472.91;;;20.27;100.00
56944;BME280;42848;42.524;12.052;2022-09-09T03:33:03;96473.69;;;20.24;100.00
56944;BME280;42848;42.524;12.052;2022-09-09T03:35:29;96471.34;;;20.33;100.00
56944;BME280;42848;42.524;12.052;2022-09-09T03:37:55;96483.13;;;20.30;100.00
56944;BME280;42848;42.524;12.052;2022-09-09T03:40:21;96482.44;;;20.54;100.00
56944;BME280;42848;42.524;12.052;2022-09-09T03:42:46;96485.59;;;20.49;100.00
56944;BME280;42848;42.524;12.052;2022-09-09T03:45:13;96481.66;;;20.43;100.00
56944;BME280;42848;42.524;12.052;2022-09-09T03:47:39;96484.69;;;20.16;100.00
56944;BME280;42848;42.524;12.052;2022-09-09T03:50:06;96486.97;;;19.97;100.00
56944;BME280;42848;42.524;12.052;2022-09-09T03:52:37;96490.13;;;19.99;100.00
56944;BME280;42848;42.524;12.052;2022-09-09T03:55:04;96490.97;;;20.21;100.00
56944;BME280;42848;42.524;12.052;2022-09-09T03:57:31;96489.41;;;20.16;100.00
56944;BME280;42848;42.524;12.052;2022-09-09T04:00:02;96492.94;;;20.20;100.00
56944;BME280;42848;42.524;12.052;2022-09-09T04:02:28;96493.78;;;20.35;100.00
56944;BME280;42848;42.524;12.052;2022-09-09T04:04:54;96493.63;;;19.92;100.00
56944;BME280;42848;42.524;12.052;2022-09-09T04:07:19;96487.47;;;20.24;100.00
56944;BME280;42848;42.524;12.052;2022-09-09T04:09:45;96492.66;;;20.47;100.00
56944;BME280;42848;42.524;12.052;2022-09-09T04:12:11;96498.53;;;20.38;100.00
56944;BME280;42848;42.524;12.052;2022-09-09T04:14:38;96508.47;;;20.50;100.00
56944;BME280;42848;42.524;12.052;2022-09-09T04:17:04;96500.56;;;20.44;100.00
56944;BME280;42848;42.524;12.052;2022-09-09T04:19:32;96504.81;;;20.31;100.00
56944;BME280;42848;42.524;12.052;2022-09-09T04:21:58;96500.56;;;20.48;100.00
56944;BME280;42848;42.524;12.052;2022-09-09T04:24:24;96499.69;;;20.37;100.00
56944;BME280;42848;42.524;12.052;2022-09-09T04:26:52;96496.63;;;20.56;100.00
56944;BME280;42848;42.524;12.052;2022-09-09T04:29:18;96492.66;;;20.43;100.00
56944;BME280;42848;42.524;12.052;2022-09-09T04:31:43;96496.53;;;20.28;100.00
56944;BME280;42848;42.524;12.052;2022-09-09T04:34:10;96492.63;;;20.36;100.00
56944;BME280;42848;42.524;12.052;2022-09-09T04:36:36;96491.00;;;20.24;100.00
56944;BME280;42848;42.524;12.052;2022-09-09T04:39:02;96494.25;;;20.44;100.00
56944;BME280;42848;42.524;12.052;2022-09-09T04:41:28;96495.00;;;20.41;100.00
56944;BME280;42848;42.524;12.052;2022-09-09T04:43:54;96494.28;;;20.58;100.00
56944;BME280;42848;42.524;12.052;2022-09-09T04:46:21;96498.91;;;20.36;100.00
56944;BME280;42848;42.524;12.052;2022-09-09T04:48:49;96487.81;;;20.18;100.00
56944;BME280;42848;42.524;12.052;2022-09-09T04:51:15;96499.66;;;20.23;100.00
56944;BME280;42848;42.524;12.052;2022-09-09T04:53:41;96489.47;;;20.34;100.00
56944;BME280;42848;42.524;12.052;2022-09-09T04:56:09;96504.09;;;20.45;100.00
56944;BME280;42848;42.524;12.052;2022-09-09T04:58:36;96497.44;;;20.60;100.00
56944;BME280;42848;42.524;12.052;2022-09-09T05:01:04;96497.84;;;20.59;100.00
56944;BME280;42848;42.524;12.052;2022-09-09T05:03:30;96497.47;;;20.74;100.00
56944;BME280;42848;42.524;12.052;2022-09-09T05:06:05;96498.66;;;20.77;100.00
56944;BME280;42848;42.524;12.052;2022-09-09T05:08:32;96503.00;;;20.78;100.00
56944;BME280;42848;42.524;12.052;2022-09-09T05:10:57;96499.84;;;20.80;100.00
56944;BME280;42848;42.524;12.052;2022-09-09T05:13:28;96509.31;;;20.82;100.00
56944;BME280;42848;42.524;12.052;2022-09-09T05:15:54;96510.91;;;20.87;100.00
56944;BME280;42848;42.524;12.052;2022-09-09T05:18:20;96516.44;;;20.94;100.00
56944;BME280;42848;42.524;12.052;2022-09-09T05:20:48;96516.38;;;20.72;100.00
56944;BME280;42848;42.524;12.052;2022-09-09T05:23:14;96512.47;;;20.81;100.00
56944;BME280;42848;42.524;12.052;2022-09-09T05:25:40;96517.19;;;20.84;100.00
56944;BME280;42848;42.524;12.052;2022-09-09T05:28:06;96517.19;;;20.84;100.00
56944;BME280;42848;42.524;12.052;2022-09-09T05:30:33;96524.28;;;20.81;100.00
56944;BME280;42848;42.524;12.052;2022-09-09T05:32:59;96526.66;;;20.90;100.00
56944;BME280;42848;42.524;12.052;2022-09-09T05:35:25;96525.09;;;20.89;100.00
56944;BME280;42848;42.524;12.052;2022-09-09T05:37:51;96537.66;;;20.76;100.00
56944;BME280;42848;42.524;12.052;2022-09-09T05:40:16;96538.09;;;20.92;100.00
56944;BME280;42848;42.524;12.052;2022-09-09T05:42:42;96533.00;;;20.94;100.00
56944;BME280;42848;42.524;12.052;2022-09-09T05:45:08;96540.03;;;20.81;100.00
56944;BME280;42848;42.524;12.052;2022-09-09T05:47:35;96542.41;;;20.79;100.00
56944;BME280;42848;42.524;12.052;2022-09-09T05:50:03;96541.69;;;21.03;100.00
56944;BME280;42848;42.524;12.052;2022-09-09T05:52:28;96536.94;;;21.11;100.00
56944;BME280;42848;42.524;12.052;2022-09-09T05:54:54;96548.31;;;20.84;100.00
56944;BME280;42848;42.524;12.052;2022-09-09T05:57:21;96536.53;;;20.98;100.00
56944;BME280;42848;42.524;12.052;2022-09-09T05:59:47;96534.56;;;21.02;100.00
56944;BME280;42848;42.524;12.052;2022-09-09T06:02:12;96536.53;;;20.98;100.00
56944;BME280;42848;42.524;12.052;2022-09-09T06:04:38;96531.00;;;20.98;100.00
56944;BME280;42848;42.524;12.052;2022-09-09T06:07:05;96533.78;;;21.05;100.00
56944;BME280;42848;42.524;12.052;2022-09-09T06:09:31;96533.78;;;20.98;100.00
56944;BME280;42848;42.524;12.052;2022-09-09T06:11:57;96544.44;;;21.24;100.00
56944;BME280;42848;42.524;12.052;2022-09-09T06:14:24;96541.31;;;21.33;100.00
56944;BME280;42848;42.524;12.052;2022-09-09T06:16:51;96544.41;;;20.96;100.00
56944;BME280;42848;42.524;12.052;2022-09-09T06:19:17;96540.47;;;20.97;100.00
56944;BME280;42848;42.524;12.052;2022-09-09T06:21:43;96546.44;;;21.27;100.00
56944;BME280;42848;42.524;12.052;2022-09-09T06:24:10;96545.63;;;21.23;100.00
56944;BME280;42848;42.524;12.052;2022-09-09T06:26:39;96545.63;;;21.16;100.00
56944;BME280;42848;42.524;12.052;2022-09-09T06:29:06;96549.22;;;21.42;100.00
56944;BME280;42848;42.524;12.052;2022-09-09T06:31:34;96545.66;;;21.48;100.00
56944;BME280;42848;42.524;12.052;2022-09-09T06:34:05;96544.88;;;21.41;100.00
56944;BME280;42848;42.524;12.052;2022-09-09T06:36:33;96547.22;;;21.46;100.00
56944;BME280;42848;42.524;12.052;2022-09-09T06:39:00;96556.28;;;21.71;100.00
56944;BME280;42848;42.524;12.052;2022-09-09T06:41:28;96549.56;;;21.72;100.00
56944;BME280;42848;42.524;12.052;2022-09-09T06:43:54;96551.53;;;21.82;100.00
56944;BME280;42848;42.524;12.052;2022-09-09T06:46:28;96550.34;;;21.91;100.00
56944;BME280;42848;42.524;12.052;2022-09-09T06:48:56;96545.59;;;21.98;100.00
56944;BME280;42848;42.524;12.052;2022-09-09T06:51:25;96547.19;;;21.96;100.00
56944;BME280;42848;42.524;12.052;2022-09-09T06:53:55;96551.50;;;22.04;100.00
56944;BME280;42848;42.524;12.052;2022-09-09T06:56:25;96553.84;;;22.23;100.00
56944;BME280;42848;42.524;12.052;2022-09-09T06:58:54;96548.69;;;22.22;100.00
56944;BME280;42848;42.524;12.052;2022-09-09T07:01:23;96554.22;;;22.25;100.00
56944;BME280;42848;42.524;12.052;2022-09-09T07:03:51;96549.09;;;22.24;100.00
56944;BME280;42848;42.524;12.052;2022-09-09T07:06:22;96554.25;;;22.18;100.00
56944;BME280;42848;42.524;12.052;2022-09-09T07:08:54;96558.13;;;22.38;100.00
56944;BME280;42848;42.524;12.052;2022-09-09T07:11:21;96562.06;;;22.37;100.00
56944;BME280;42848;42.524;12.052;2022-09-09T07:13:48;96567.56;;;22.52;100.00
56944;BME280;42848;42.524;12.052;2022-09-09T07:16:16;96564.38;;;22.57;100.00
56944;BME280;42848;42.524;12.052;2022-09-09T07:18:43;96569.13;;;22.60;100.00
56944;BME280;42848;42.524;12.052;2022-09-09T07:21:10;96568.31;;;22.63;100.00
56944;BME280;42848;42.524;12.052;2022-09-09T07:23:38;96578.25;;;22.46;100.00
56944;BME280;42848;42.524;12.052;2022-09-09T07:26:09;96575.91;;;22.37;100.00
56944;BME280;42848;42.524;12.052;2022-09-09T07:28:35;96569.53;;;22.48;100.00
56944;BME280;42848;42.524;12.052;2022-09-09T07:31:02;96561.22;;;22.55;100.00
56944;BME280;42848;42.524;12.052;2022-09-09T07:33:30;96556.44;;;22.62;100.00
56944;BME280;42848;42.524;12.052;2022-09-09T07:38:29;96569.13;;;22.56;100.00
56944;BME280;42848;42.524;12.052;2022-09-09T07:41:04;96566.75;;;22.55;100.00
56944;BME280;42848;42.524;12.052;2022-09-09T07:43:31;96571.53;;;22.47;100.00
56944;BME280;42848;42.524;12.052;2022-09-09T07:45:58;96577.84;;;22.51;100.00
56944;BME280;42848;42.524;12.052;2022-09-09T07:48:24;96585.75;;;22.46;100.00
56944;BME280;42848;42.524;12.052;2022-09-09T07:50:51;96580.22;;;22.46;100.00
56944;BME280;42848;42.524;12.052;2022-09-09T07:53:17;96595.16;;;22.66;100.00
56944;BME280;42848;42.524;12.052;2022-09-09T07:55:42;96593.59;;;22.58;100.00
56944;BME280;42848;42.524;12.052;2022-09-09T07:58:08;96598.00;;;22.52;100.00
56944;BME280;42848;42.524;12.052;2022-09-09T08:00:34;96587.66;;;22.63;100.00
56944;BME280;42848;42.524;12.052;2022-09-09T08:03:00;96599.94;;;22.62;100.00
56944;BME280;42848;42.524;12.052;2022-09-09T08:05:27;96593.59;;;22.65;100.00
56944;BME280;42848;42.524;12.052;2022-09-09T08:07:53;96598.25;;;22.86;100.00
56944;BME280;42848;42.524;12.052;2022-09-09T08:10:19;96600.66;;;22.87;100.00
56944;BME280;42848;42.524;12.052;2022-09-09T08:12:44;96609.31;;;22.89;100.00
56944;BME280;42848;42.524;12.052;2022-09-09T08:15:10;96620.72;;;23.06;100.00
56944;BME280;42848;42.524;12.052;2022-09-09T08:17:37;96615.22;;;22.95;100.00
56944;BME280;42848;42.524;12.052;2022-09-09T08:20:03;96624.22;;;23.17;100.00
56944;BME280;42848;42.524;12.052;2022-09-09T08:22:30;96625.84;;;23.04;100.00
56944;BME280;42848;42.524;12.052;2022-09-09T08:24:56;96637.69;;;23.15;100.00
56944;BME280;42848;42.524;12.052;2022-09-09T08:27:22;96637.22;;;23.20;100.00
56944;BME280;42848;42.524;12.052;2022-09-09T08:29:48;96634.84;;;23.22;100.00
56944;BME280;42848;42.524;12.052;2022-09-09T08:32:14;96637.19;;;23.27;100.00
56944;BME280;42848;42.524;12.052;2022-09-09T08:34:39;96637.59;;;23.25;100.00
56944;BME280;42848;42.524;12.052;2022-09-09T08:37:06;96642.78;;;23.20;100.00
56944;BME280;42848;42.524;12.052;2022-09-09T08:39:32;96629.38;;;23.15;100.00
56944;BME280;42848;42.524;12.052;2022-09-09T08:53:38;96633.59;;;23.30;100.00
56944;BME280;42848;42.524;12.052;2022-09-09T08:55:48;96636.00;;;23.28;100.00
56944;BME280;42848;42.524;12.052;2022-09-09T08:58:16;96632.03;;;23.33;100.00
56944;BME280;42848;42.524;12.052;2022-09-09T09:09:24;96644.56;;;23.51;100.00
56944;BME280;42848;42.524;12.052;2022-09-09T09:11:55;96643.81;;;23.44;100.00
56944;BME280;42848;42.524;12.052;2022-09-09T09:14:28;96639.75;;;23.63;100.00
56944;BME280;42848;42.524;12.052;2022-09-09T09:17:04;96638.88;;;23.73;100.00
56944;BME280;42848;42.524;12.052;2022-09-09T09:19:35;96643.72;;;23.62;100.00
56944;BME280;42848;42.524;12.052;2022-09-09T09:22:15;96642.53;;;23.63;100.00
56944;BME280;42848;42.524;12.052;2022-09-09T09:24:56;96646.50;;;23.62;100.00
56944;BME280;42848;42.524;12.052;2022-09-09T09:27:43;96644.13;;;23.56;100.00
56944;BME280;42848;42.524;12.052;2022-09-09T09:30:18;96639.72;;;23.70;100.00
56944;BME280;42848;42.524;12.052;2022-09-09T09:33:17;96642.06;;;23.71;100.00
56944;BME280;42848;42.524;12.052;2022-09-09T09:35:43;96631.72;;;23.79;100.00
56944;BME280;42848;42.524;12.052;2022-09-09T09:38:24;96638.84;;;23.76;100.00
56944;BME280;42848;42.524;12.052;2022-09-09T09:40:58;96626.19;;;23.79;100.00
56944;BME280;42848;42.524;12.052;2022-09-09T09:43:35;96625.72;;;23.84;100.00
56944;BME280;42848;42.524;12.052;2022-09-09T09:46:04;96633.09;;;24.01;100.00
56944;BME280;42848;42.524;12.052;2022-09-09T09:48:59;96622.56;;;23.82;100.00
56944;BME280;42848;42.524;12.052;2022-09-09T09:51:25;96618.72;;;24.13;100.00
56944;BME280;42848;42.524;12.052;2022-09-09T09:53:52;96617.97;;;24.09;100.00
56944;BME280;42848;42.524;12.052;2022-09-09T09:56:27;96610.81;;;24.12;100.00
56944;BME280;42848;42.524;12.052;2022-09-09T09:58:58;96625.38;;;24.23;100.00
56944;BME280;42848;42.524;12.052;2022-09-09T10:01:26;96613.06;;;24.24;100.00
56944;BME280;42848;42.524;12.052;2022-09-09T10:03:57;96624.69;;;24.53;100.00
56944;BME280;42848;42.524;12.052;2022-09-09T10:06:49;96618.22;;;24.63;100.00
56944;BME280;42848;42.524;12.052;2022-09-09T10:09:20;96621.84;;;24.60;100.00
56944;BME280;42848;42.524;12.052;2022-09-09T10:12:05;96615.41;;;24.33;100.00
56944;BME280;42848;42.524;12.052;2022-09-09T10:18:05;96619.44;;;24.59;100.00
56944;BME280;42848;42.524;12.052;2022-09-09T10:23:38;96621.09;;;24.87;100.00
56944;BME280;42848;42.524;12.052;2022-09-09T10:26:15;96612.44;;;24.51;100.00
56944;BME280;42848;42.524;12.052;2022-09-09T10:46:31;96596.72;;;24.71;100.00
56944;BME280;42848;42.524;12.052;2022-09-09T10:55:02;96585.56;;;25.05;100.00
56944;BME280;42848;42.524;12.052;2022-09-09T10:57:53;96598.06;;;24.90;100.00
56944;BME280;42848;42.524;12.052;2022-09-09T11:00:37;96596.63;;;24.78;100.00
56944;BME280;42848;42.524;12.052;2022-09-09T11:03:04;96606.31;;;24.63;100.00
56944;BME280;42848;42.524;12.052;2022-09-09T11:05:43;96594.84;;;24.61;100.00
56944;BME280;42848;42.524;12.052;2022-09-09T11:08:19;96609.41;;;24.68;73.21
56944;BME280;42848;42.524;12.052;2022-09-09T11:11:04;96603.06;;;24.72;63.75
56944;BME280;42848;42.524;12.052;2022-09-09T11:13:38;96599.91;;;24.70;68.11
56944;BME280;42848;42.524;12.052;2022-09-09T11:16:19;96614.50;;;24.39;69.43
56944;BME280;42848;42.524;12.052;2022-09-09T11:18:47;96614.97;;;24.31;71.76
56944;BME280;42848;42.524;12.052;2022-09-09T11:21:45;96618.84;;;24.44;66.09
56944;BME280;42848;42.524;12.052;2022-09-09T11:24:27;96608.44;;;24.52;68.50
56944;BME280;42848;42.524;12.052;2022-09-09T11:27:21;96614.31;;;24.57;69.19
56944;BME280;42848;42.524;12.052;2022-09-09T11:30:18;96623.56;;;24.81;54.42
56944;BME280;42848;42.524;12.052;2022-09-09T11:33:07;96636.66;;;24.81;57.85
56944;BME280;42848;42.524;12.052;2022-09-09T11:38:47;96631.53;;;24.79;58.94
56944;BME280;42848;42.524;12.052;2022-09-09T11:41:14;96624.69;;;24.87;62.48
56944;BME280;42848;42.524;12.052;2022-09-09T11:43:45;96638.50;;;24.91;57.72
56944;BME280;42848;42.524;12.052;2022-09-09T11:46:14;96632.88;;;24.98;58.84
56944;BME280;42848;42.524;12.052;2022-09-09T11:48:42;96645.53;;;24.99;57.78
56944;BME280;42848;42.524;12.052;2022-09-09T11:51:12;96637.53;;;25.08;55.01
56944;BME280;42848;42.524;12.052;2022-09-09T11:56:55;96646.63;;;25.09;54.45
56944;BME280;42848;42.524;12.052;2022-09-09T11:59:23;96657.28;;;25.14;53.25
56944;BME280;42848;42.524;12.052;2022-09-09T12:02:24;96655.00;;;25.05;47.63
56944;BME280;42848;42.524;12.052;2022-09-09T12:05:13;96650.28;;;25.02;54.58
56944;BME280;42848;42.524;12.052;2022-09-09T12:07:51;96645.50;;;25.06;48.89
56944;BME280;42848;42.524;12.052;2022-09-09T12:10:30;96648.28;;;25.06;49.34
56944;BME280;42848;42.524;12.052;2022-09-09T12:13:21;96650.94;;;25.13;49.03
56944;BME280;42848;42.524;12.052;2022-09-09T12:16:00;96652.50;;;25.14;51.59
56944;BME280;42848;42.524;12.052;2022-09-09T12:18:36;96649.34;;;25.12;53.69
56944;BME280;42848;42.524;12.052;2022-09-09T12:24:01;96648.44;;;25.22;51.80
56944;BME280;42848;42.524;12.052;2022-09-09T12:26:42;96657.81;;;25.32;54.89
56944;BME280;42848;42.524;12.052;2022-09-09T12:29:13;96660.19;;;25.34;56.79
56944;BME280;42848;42.524;12.052;2022-09-09T12:34:53;96659.81;;;25.32;52.22
56944;BME280;42848;42.524;12.052;2022-09-09T12:37:34;96655.31;;;25.41;53.06
56944;BME280;42848;42.524;12.052;2022-09-09T12:40:04;96659.13;;;25.51;58.35
56944;BME280;42848;42.524;12.052;2022-09-09T12:42:30;96669.09;;;25.48;54.52
56944;BME280;42848;42.524;12.052;2022-09-09T12:45:03;96660.94;;;25.38;52.59
56944;BME280;42848;42.524;12.052;2022-09-09T12:47:49;96651.19;;;25.53;56.14
56944;BME280;42848;42.524;12.052;2022-09-09T12:50:29;96643.41;;;25.41;54.55
56944;BME280;42848;42.524;12.052;2022-09-09T12:53:02;96641.84;;;25.40;57.30
56944;BME280;42848;42.524;12.052;2022-09-09T12:55:35;96646.34;;;25.57;58.75
56944;BME280;42848;42.524;12.052;2022-09-09T12:58:03;96656.44;;;25.74;58.39
56944;BME280;42848;42.524;12.052;2022-09-09T13:00:34;96646.53;;;25.73;54.77
56944;BME280;42848;42.524;12.052;2022-09-09T13:03:02;96635.97;;;25.61;54.11
56944;BME280;42848;42.524;12.052;2022-09-09T13:05:36;96642.47;;;25.51;57.31
56944;BME280;42848;42.524;12.052;2022-09-09T13:08:05;96634.28;;;25.40;56.78
56944;BME280;42848;42.524;12.052;2022-09-09T13:10:41;96636.78;;;25.85;61.77
56944;BME280;42848;42.524;12.052;2022-09-09T13:13:21;96627.75;;;25.81;58.71
56944;BME280;42848;42.524;12.052;2022-09-09T13:15:58;96640.19;;;25.69;59.59
56944;BME280;42848;42.524;12.052;2022-09-09T13:18:28;96637.69;;;25.78;65.92
56944;BME280;42848;42.524;12.052;2022-09-09T13:20:55;96627.19;;;26.13;58.71
56944;BME280;42848;42.524;12.052;2022-09-09T13:23:27;96643.94;;;26.09;60.10
56944;BME280;42848;42.524;12.052;2022-09-09T13:26:00;96634.47;;;26.07;61.87
56944;BME280;42848;42.524;12.052;2022-09-09T13:28:28;96637.34;;;26.00;57.73
56944;BME280;42848;42.524;12.052;2022-09-09T13:31:02;96638.38;;;26.09;58.73
56944;BME280;42848;42.524;12.052;2022-09-09T13:33:34;96641.03;;;26.17;60.75
56944;BME280;42848;42.524;12.052;2022-09-09T13:36:07;96642.69;;;25.91;61.51
56944;BME280;42848;42.524;12.052;2022-09-09T13:38:40;96639.16;;;26.10;58.78
56944;BME280;42848;42.524;12.052;2022-09-09T13:41:22;96638.94;;;26.01;58.91
56944;BME280;42848;42.524;12.052;2022-09-09T13:43:49;96632.16;;;26.02;59.79
56944;BME280;42848;42.524;12.052;2022-09-09T13:46:38;96635.78;;;25.99;59.59
56944;BME280;42848;42.524;12.052;2022-09-09T13:54:06;96626.97;;;26.24;64.40
56944;BME280;42848;42.524;12.052;2022-09-09T13:56:35;96620.28;;;26.45;61.66
56944;BME280;42848;42.524;12.052;2022-09-09T13:59:02;96625.56;;;26.59;62.00
56944;BME280;42848;42.524;12.052;2022-09-09T14:01:29;96628.56;;;26.48;59.90
56944;BME280;42848;42.524;12.052;2022-09-09T14:03:55;96632.13;;;26.49;60.83
56944;BME280;42848;42.524;12.052;2022-09-09T14:06:21;96630.28;;;26.62;62.18
56944;BME280;42848;42.524;12.052;2022-09-09T14:08:49;96625.00;;;26.48;60.25
56944;BME280;42848;42.524;12.052;2022-09-09T14:11:16;96627.41;;;26.46;60.79
56944;BME280;42848;42.524;12.052;2022-09-09T14:13:42;96636.22;;;26.64;59.24
56944;BME280;42848;42.524;12.052;2022-09-09T14:16:08;96620.16;;;26.52;59.08
56944;BME280;42848;42.524;12.052;2022-09-09T14:18:35;96633.56;;;26.57;65.06
56944;BME280;42848;42.524;12.052;2022-09-09T14:21:03;96637.91;;;26.58;61.90
56944;BME280;42848;42.524;12.052;2022-09-09T14:23:28;96633.44;;;26.64;61.76
56944;BME280;42848;42.524;12.052;2022-09-09T14:25:55;96622.44;;;26.57;63.64
56944;BME280;42848;42.524;12.052;2022-09-09T14:28:21;96627.50;;;26.62;63.58
56944;BME280;42848;42.524;12.052;2022-09-09T14:30:47;96629.78;;;26.67;64.79
56944;BME280;42848;42.524;12.052;2022-09-09T14:33:15;96638.88;;;26.71;67.20
56944;BME280;42848;42.524;12.052;2022-09-09T14:35:42;96637.88;;;26.61;60.06
56944;BME280;42848;42.524;12.052;2022-09-09T14:38:08;96638.09;;;26.71;61.85
56944;BME280;42848;42.524;12.052;2022-09-09T14:40:35;96637.13;;;26.77;64.52